sensor_id;sensor_type;location;lat;lon;timestamp;P1;durP1;ratioP1;P2;durP2;ratioP2
34978;SDS011;21185;50.978;13.720;2022-09-03T00:01:13;1.33;;;0.90;;
34978;SDS011;21185;50.978;13.720;2022-09-03T00:06:26;1.58;;;1.10;;
34978;SDS011;21185;50.978;13.720;2022-09-03T00:11:57;3.13;;;0.85;;
34978;SDS011;21185;50.978;13.720;2022-09-03T00:17:14;1.40;;;0.83;;
34978;SDS011;21185;50.978;13.720;2022-09-03T00:22:23;1.85;;;0.80;;
34978;SDS011;21185;50.978;13.720;2022-09-03T00:27:31;0.98;;;0.85;;
34978;SDS011;21185;50.978;13.720;2022-09-03T00:37:55;1.27;;;0.73;;
34978;SDS011;21185;50.978;13.720;2022-09-03T00:48:20;1.05;;;0.75;;
34978;SDS011;21185;50.978;13.720;2022-09-03T01:20:20;2.15;;;1.05;;
34978;SDS011;21185;50.978;13.720;2022-09-03T01:30:32;1.07;;;0.90;;
34978;SDS011;21185;50.978;13.720;2022-09-03T01:35:48;1.30;;;0.90;;
34978;SDS011;21185;50.978;13.720;2022-09-03T01:46:30;1.42;;;0.95;;
34978;SDS011;21185;50.978;13.720;2022-09-03T01:51:38;1.77;;;0.93;;
34978;SDS011;21185;50.978;13.720;2022-09-03T01:57:06;1.25;;;0.90;;
34978;SDS011;21185;50.978;13.720;2022-09-03T02:02:30;3.05;;;1.30;;
34978;SDS011;21185;50.978;13.720;2022-09-03T02:07:38;2.05;;;0.90;;
34978;SDS011;21185;50.978;13.720;2022-09-03T02:12:42;2.47;;;0.83;;
34978;SDS011;21185;50.978;13.720;2022-09-03T02:17:48;1.40;;;0.95;;
34978;SDS011;21185;50.978;13.720;2022-09-03T02:27:58;0.50;;;0.50;;
34978;SDS011;21185;50.978;13.720;2022-09-03T02:33:01;6.90;;;0.85;;
34978;SDS011;21185;50.978;13.720;2022-09-03T02:38:08;2.03;;;0.95;;
34978;SDS011;21185;50.978;13.720;2022-09-03T02:43:31;0.77;;;0.77;;
34978;SDS011;21185;50.978;13.720;2022-09-03T02:48:39;2.28;;;1.00;;
34978;SDS011;21185;50.978;13.720;2022-09-03T02:53:41;1.10;;;0.70;;
34978;SDS011;21185;50.978;13.720;2022-09-03T02:58:43;1.38;;;0.85;;
34978;SDS011;21185;50.978;13.720;2022-09-03T03:03:45;3.78;;;1.00;;
34978;SDS011;21185;50.978;13.720;2022-09-03T03:08:48;2.03;;;1.15;;
34978;SDS011;21185;50.978;13.720;2022-09-03T03:13:51;3.15;;;1.20;;
34978;SDS011;21185;50.978;13.720;2022-09-03T03:18:54;0.88;;;0.80;;
34978;SDS011;21185;50.978;13.720;2022-09-03T03:23:57;1.45;;;1.10;;
34978;SDS011;21185;50.978;13.720;2022-09-03T03:29:00;1.38;;;0.80;;
34978;SDS011;21185;50.978;13.720;2022-09-03T03:34:05;2.83;;;1.15;;
34978;SDS011;21185;50.978;13.720;2022-09-03T03:39:07;1.88;;;0.98;;
34978;SDS011;21185;50.978;13.720;2022-09-03T03:44:12;1.02;;;0.82;;
34978;SDS011;21185;50.978;13.720;2022-09-03T03:49:14;1.67;;;0.90;;
34978;SDS011;21185;50.978;13.720;2022-09-03T03:54:16;1.02;;;0.70;;
34978;SDS011;21185;50.978;13.720;2022-09-03T03:59:18;0.80;;;0.68;;
34978;SDS011;21185;50.978;13.720;2022-09-03T04:04:20;1.73;;;1.08;;
34978;SDS011;21185;50.978;13.720;2022-09-03T04:09:22;2.28;;;1.02;;
34978;SDS011;21185;50.978;13.720;2022-09-03T04:14:24;2.20;;;0.95;;
34978;SDS011;21185;50.978;13.720;2022-09-03T04:19:27;0.95;;;0.85;;
34978;SDS011;21185;50.978;13.720;2022-09-03T04:24:32;1.88;;;1.00;;
34978;SDS011;21185;50.978;13.720;2022-09-03T04:29:34;1.77;;;0.98;;
34978;SDS011;21185;50.978;13.720;2022-09-03T04:34:39;1.77;;;0.75;;
34978;SDS011;21185;50.978;13.720;2022-09-03T04:39:41;1.98;;;1.10;;
34978;SDS011;21185;50.978;13.720;2022-09-03T04:44:43;1.00;;;0.82;;
34978;SDS011;21185;50.978;13.720;2022-09-03T04:49:45;4.10;;;0.75;;
34978;SDS011;21185;50.978;13.720;2022-09-03T04:54:47;1.55;;;0.95;;
34978;SDS011;21185;50.978;13.720;2022-09-03T04:59:49;2.85;;;1.23;;
34978;SDS011;21185;50.978;13.720;2022-09-03T05:04:51;0.75;;;0.70;;
34978;SDS011;21185;50.978;13.720;2022-09-03T05:09:54;1.42;;;0.80;;
34978;SDS011;21185;50.978;13.720;2022-09-03T05:14:57;2.28;;;1.00;;
34978;SDS011;21185;50.978;13.720;2022-09-03T05:20:00;0.98;;;0.80;;
34978;SDS011;21185;50.978;13.720;2022-09-03T05:25:02;0.93;;;0.70;;
34978;SDS011;21185;50.978;13.720;2022-09-03T05:30:05;3.45;;;0.70;;
34978;SDS011;21185;50.978;13.720;2022-09-03T05:35:07;2.08;;;1.10;;
34978;SDS011;21185;50.978;13.720;2022-09-03T05:40:11;1.50;;;0.85;;
34978;SDS011;21185;50.978;13.720;2022-09-03T05:45:13;1.95;;;0.70;;
34978;SDS011;21185;50.978;13.720;2022-09-03T05:50:15;1.85;;;1.00;;
34978;SDS011;21185;50.978;13.720;2022-09-03T05:55:17;1.60;;;0.85;;
34978;SDS011;21185;50.978;13.720;2022-09-03T06:00:20;0.93;;;0.70;;
34978;SDS011;21185;50.978;13.720;2022-09-03T06:05:22;1.27;;;0.80;;
34978;SDS011;21185;50.978;13.720;2022-09-03T06:10:24;0.77;;;0.70;;
34978;SDS011;21185;50.978;13.720;2022-09-03T06:15:35;2.15;;;0.60;;
34978;SDS011;21185;50.978;13.720;2022-09-03T06:20:37;3.03;;;0.88;;
34978;SDS011;21185;50.978;13.720;2022-09-03T06:25:39;1.10;;;0.80;;
34978;SDS011;21185;50.978;13.720;2022-09-03T06:30:42;1.88;;;0.77;;
34978;SDS011;21185;50.978;13.720;2022-09-03T06:35:45;2.35;;;0.90;;
34978;SDS011;21185;50.978;13.720;2022-09-03T06:40:51;2.13;;;0.80;;
34978;SDS011;21185;50.978;13.720;2022-09-03T06:45:58;0.97;;;0.67;;
34978;SDS011;21185;50.978;13.720;2022-09-03T06:56:07;1.75;;;0.60;;
34978;SDS011;21185;50.978;13.720;2022-09-03T07:01:11;1.23;;;0.65;;
34978;SDS011;21185;50.978;13.720;2022-09-03T07:06:17;2.97;;;0.70;;
34978;SDS011;21185;50.978;13.720;2022-09-03T07:11:20;2.60;;;0.68;;
34978;SDS011;21185;50.978;13.720;2022-09-03T07:16:26;2.58;;;0.65;;
34978;SDS011;21185;50.978;13.720;2022-09-03T07:21:30;1.52;;;0.57;;
34978;SDS011;21185;50.978;13.720;2022-09-03T07:26:35;3.45;;;0.75;;
34978;SDS011;21185;50.978;13.720;2022-09-03T07:31:40;1.92;;;0.93;;
34978;SDS011;21185;50.978;13.720;2022-09-03T07:36:44;5.53;;;1.10;;
34978;SDS011;21185;50.978;13.720;2022-09-03T07:41:49;5.25;;;0.90;;
34978;SDS011;21185;50.978;13.720;2022-09-03T07:46:51;2.47;;;0.85;;
34978;SDS011;21185;50.978;13.720;2022-09-03T07:51:53;1.30;;;0.80;;
34978;SDS011;21185;50.978;13.720;2022-09-03T07:56:55;2.58;;;0.80;;
34978;SDS011;21185;50.978;13.720;2022-09-03T08:01:58;1.02;;;0.70;;
34978;SDS011;21185;50.978;13.720;2022-09-03T08:06:59;2.55;;;1.02;;
34978;SDS011;21185;50.978;13.720;2022-09-03T08:12:02;0.77;;;0.60;;
34978;SDS011;21185;50.978;13.720;2022-09-03T08:17:04;1.33;;;0.75;;
34978;SDS011;21185;50.978;13.720;2022-09-03T08:22:06;1.75;;;0.85;;
34978;SDS011;21185;50.978;13.720;2022-09-03T08:27:08;0.98;;;0.60;;
34978;SDS011;21185;50.978;13.720;2022-09-03T08:32:10;0.95;;;0.50;;
34978;SDS011;21185;50.978;13.720;2022-09-03T08:37:14;1.20;;;0.70;;
34978;SDS011;21185;50.978;13.720;2022-09-03T08:48:11;3.88;;;1.30;;
34978;SDS011;21185;50.978;13.720;2022-09-03T08:53:18;2.17;;;1.17;;
34978;SDS011;21185;50.978;13.720;2022-09-03T08:58:24;4.63;;;1.00;;
34978;SDS011;21185;50.978;13.720;2022-09-03T09:24:26;1.70;;;0.90;;
34978;SDS011;21185;50.978;13.720;2022-09-03T09:29:35;2.15;;;1.17;;
34978;SDS011;21185;50.978;13.720;2022-09-03T09:34:39;1.63;;;0.85;;
34978;SDS011;21185;50.978;13.720;2022-09-03T09:39:53;1.65;;;0.90;;
34978;SDS011;21185;50.978;13.720;2022-09-03T09:45:07;2.10;;;0.90;;
34978;SDS011;21185;50.978;13.720;2022-09-03T09:50:16;3.90;;;0.98;;
34978;SDS011;21185;50.978;13.720;2022-09-03T09:55:29;3.47;;;1.00;;
34978;SDS011;21185;50.978;13.720;2022-09-03T10:00:31;1.75;;;0.93;;
34978;SDS011;21185;50.978;13.720;2022-09-03T10:05:35;1.95;;;0.88;;
34978;SDS011;21185;50.978;13.720;2022-09-03T10:10:41;1.38;;;0.90;;
34978;SDS011;21185;50.978;13.720;2022-09-03T10:21:10;2.78;;;0.90;;
34978;SDS011;21185;50.978;13.720;2022-09-03T10:26:16;1.40;;;0.70;;
34978;SDS011;21185;50.978;13.720;2022-09-03T10:36:42;1.08;;;0.60;;
34978;SDS011;21185;50.978;13.720;2022-09-03T10:47:56;2.00;;;0.75;;
34978;SDS011;21185;50.978;13.720;2022-09-03T11:04:05;2.80;;;1.10;;
34978;SDS011;21185;50.978;13.720;2022-09-03T11:14:39;1.45;;;0.80;;
34978;SDS011;21185;50.978;13.720;2022-09-03T11:19:48;2.70;;;0.90;;
34978;SDS011;21185;50.978;13.720;2022-09-03T11:24:55;3.05;;;1.23;;
34978;SDS011;21185;50.978;13.720;2022-09-03T11:30:04;1.52;;;0.80;;
34978;SDS011;21185;50.978;13.720;2022-09-03T11:35:12;5.28;;;1.10;;
34978;SDS011;21185;50.978;13.720;2022-09-03T11:40:35;1.10;;;0.73;;
34978;SDS011;21185;50.978;13.720;2022-09-03T11:45:39;1.00;;;0.65;;
34978;SDS011;21185;50.978;13.720;2022-09-03T11:50:46;16.65;;;2.90;;
34978;SDS011;21185;50.978;13.720;2022-09-03T12:01:08;1.15;;;0.73;;
34978;SDS011;21185;50.978;13.720;2022-09-03T12:06:23;5.15;;;1.02;;
34978;SDS011;21185;50.978;13.720;2022-09-03T12:11:43;1.05;;;0.57;;
34978;SDS011;21185;50.978;13.720;2022-09-03T12:17:17;3.20;;;1.08;;
34978;SDS011;21185;50.978;13.720;2022-09-03T12:22:29;0.98;;;0.70;;
34978;SDS011;21185;50.978;13.720;2022-09-03T12:27:39;1.88;;;0.90;;
34978;SDS011;21185;50.978;13.720;2022-09-03T12:32:45;2.00;;;0.77;;
34978;SDS011;21185;50.978;13.720;2022-09-03T12:37:50;1.35;;;0.90;;
34978;SDS011;21185;50.978;13.720;2022-09-03T12:43:13;4.75;;;1.00;;
34978;SDS011;21185;50.978;13.720;2022-09-03T12:48:37;1.38;;;0.80;;
34978;SDS011;21185;50.978;13.720;2022-09-03T12:53:44;2.58;;;0.80;;
34978;SDS011;21185;50.978;13.720;2022-09-03T12:58:49;3.88;;;1.35;;
34978;SDS011;21185;50.978;13.720;2022-09-03T13:09:01;2.53;;;0.80;;
34978;SDS011;21185;50.978;13.720;2022-09-03T13:40:44;6.32;;;1.00;;
34978;SDS011;21185;50.978;13.720;2022-09-03T13:45:59;6.63;;;0.90;;
34978;SDS011;21185;50.978;13.720;2022-09-03T13:56:31;1.10;;;0.53;;
34978;SDS011;21185;50.978;13.720;2022-09-03T14:07:02;1.33;;;0.55;;
34978;SDS011;21185;50.978;13.720;2022-09-03T14:28:27;0.75;;;0.60;;
34978;SDS011;21185;50.978;13.720;2022-09-03T14:39:33;0.90;;;0.60;;
34978;SDS011;21185;50.978;13.720;2022-09-03T14:44:51;3.28;;;0.60;;
34978;SDS011;21185;50.978;13.720;2022-09-03T14:50:12;1.17;;;0.73;;
34978;SDS011;21185;50.978;13.720;2022-09-03T15:05:56;2.22;;;0.75;;
34978;SDS011;21185;50.978;13.720;2022-09-03T15:11:32;1.17;;;0.65;;
34978;SDS011;21185;50.978;13.720;2022-09-03T15:17:00;5.25;;;1.05;;
34978;SDS011;21185;50.978;13.720;2022-09-03T15:22:24;6.45;;;0.70;;
34978;SDS011;21185;50.978;13.720;2022-09-03T15:37:46;0.88;;;0.65;;
34978;SDS011;21185;50.978;13.720;2022-09-03T15:43:08;0.93;;;0.60;;
34978;SDS011;21185;50.978;13.720;2022-09-03T15:48:20;3.35;;;0.55;;
34978;SDS011;21185;50.978;13.720;2022-09-03T15:58:40;7.13;;;0.75;;
34978;SDS011;21185;50.978;13.720;2022-09-03T16:08:58;1.25;;;0.70;;
34978;SDS011;21185;50.978;13.720;2022-09-03T16:19:20;1.70;;;1.00;;
34978;SDS011;21185;50.978;13.720;2022-09-03T16:30:09;1.80;;;1.30;;
34978;SDS011;21185;50.978;13.720;2022-09-03T16:35:22;1.60;;;0.77;;
34978;SDS011;21185;50.978;13.720;2022-09-03T16:51:26;3.08;;;0.77;;
34978;SDS011;21185;50.978;13.720;2022-09-03T17:02:05;1.20;;;0.70;;
34978;SDS011;21185;50.978;13.720;2022-09-03T17:18:32;5.93;;;0.77;;
34978;SDS011;21185;50.978;13.720;2022-09-03T17:29:07;1.65;;;0.90;;
34978;SDS011;21185;50.978;13.720;2022-09-03T17:51:03;3.05;;;1.45;;
34978;SDS011;21185;50.978;13.720;2022-09-03T17:56:29;2.45;;;1.42;;
34978;SDS011;21185;50.978;13.720;2022-09-03T18:01:47;4.95;;;1.27;;
34978;SDS011;21185;50.978;13.720;2022-09-03T18:06:59;2.55;;;1.40;;
34978;SDS011;21185;50.978;13.720;2022-09-03T18:12:28;3.10;;;1.15;;
34978;SDS011;21185;50.978;13.720;2022-09-03T18:17:38;4.97;;;3.40;;
34978;SDS011;21185;50.978;13.720;2022-09-03T18:22:49;4.13;;;3.00;;
34978;SDS011;21185;50.978;13.720;2022-09-03T18:28:14;5.93;;;3.00;;
34978;SDS011;21185;50.978;13.720;2022-09-03T18:33:39;9.95;;;3.00;;
34978;SDS011;21185;50.978;13.720;2022-09-03T18:39:46;4.35;;;2.33;;
34978;SDS011;21185;50.978;13.720;2022-09-03T19:02:09;7.60;;;2.10;;
34978;SDS011;21185;50.978;13.720;2022-09-03T19:13:41;6.13;;;3.25;;
34978;SDS011;21185;50.978;13.720;2022-09-03T19:24:28;4.85;;;3.08;;
34978;SDS011;21185;50.978;13.720;2022-09-03T19:29:55;7.72;;;2.97;;
34978;SDS011;21185;50.978;13.720;2022-09-03T19:35:22;3.67;;;2.70;;
34978;SDS011;21185;50.978;13.720;2022-09-03T19:40:52;6.43;;;3.38;;
34978;SDS011;21185;50.978;13.720;2022-09-03T19:52:13;5.28;;;2.33;;
34978;SDS011;21185;50.978;13.720;2022-09-03T19:57:57;3.63;;;2.00;;
34978;SDS011;21185;50.978;13.720;2022-09-03T20:03:40;12.85;;;2.22;;
34978;SDS011;21185;50.978;13.720;2022-09-03T20:09:08;3.72;;;2.13;;
34978;SDS011;21185;50.978;13.720;2022-09-03T20:14:31;3.65;;;1.88;;
34978;SDS011;21185;50.978;13.720;2022-09-03T20:30:14;3.63;;;1.60;;
34978;SDS011;21185;50.978;13.720;2022-09-03T20:36:06;7.30;;;1.98;;
34978;SDS011;21185;50.978;13.720;2022-09-03T20:40:45;3.22;;;1.65;;
34978;SDS011;21185;50.978;13.720;2022-09-03T20:51:24;3.65;;;1.75;;
34978;SDS011;21185;50.978;13.720;2022-09-03T21:34:05;6.20;;;1.85;;
34978;SDS011;21185;50.978;13.720;2022-09-03T21:39:18;2.28;;;1.60;;
34978;SDS011;21185;50.978;13.720;2022-09-03T21:55:17;2.45;;;1.55;;
34978;SDS011;21185;50.978;13.720;2022-09-03T22:01:00;2.78;;;1.60;;
34978;SDS011;21185;50.978;13.720;2022-09-03T22:06:09;3.67;;;1.83;;
34978;SDS011;21185;50.978;13.720;2022-09-03T22:11:26;2.95;;;1.63;;
34978;SDS011;21185;50.978;13.720;2022-09-03T22:16:44;2.05;;;1.42;;
34978;SDS011;21185;50.978;13.720;2022-09-03T22:22:54;3.47;;;1.40;;
34978;SDS011;21185;50.978;13.720;2022-09-03T22:27:43;2.40;;;1.58;;
34978;SDS011;21185;50.978;13.720;2022-09-03T22:33:05;3.70;;;1.80;;
34978;SDS011;21185;50.978;13.720;2022-09-03T22:54:32;3.42;;;1.60;;
34978;SDS011;21185;50.978;13.720;2022-09-03T22:59:57;2.83;;;1.52;;
34978;SDS011;21185;50.978;13.720;2022-09-03T23:10:10;2.35;;;1.63;;
34978;SDS011;21185;50.978;13.720;2022-09-03T23:15:27;2.80;;;1.70;;
34978;SDS011;21185;50.978;13.720;2022-09-03T23:20:33;3.55;;;2.35;;
34978;SDS011;21185;50.978;13.720;2022-09-03T23:25:40;1.98;;;1.42;;
34978;SDS011;21185;50.978;13.720;2022-09-03T23:30:46;4.05;;;2.10;;
34978;SDS011;21185;50.978;13.720;2022-09-03T23:35:53;7.53;;;3.88;;
34978;SDS011;21185;50.978;13.720;2022-09-03T23:41:00;4.82;;;1.58;;
34978;SDS011;21185;50.978;13.720;2022-09-03T23:57:11;2.78;;;1.73;;
